sensor_id;sensor_type;location;lat;lon;timestamp;pressure;altitude;pressure_sealevel;temperature;humidity
46111;BME280;31849;55.992;37.252;2023-04-22T00:03:49;98654.06;;;7.87;43.20
46111;BME280;31849;55.992;37.252;2023-04-22T00:08:53;98656.66;;;7.83;43.91
46111;BME280;31849;55.992;37.252;2023-04-22T00:13:58;98654.91;;;7.85;44.59
46111;BME280;31849;55.992;37.252;2023-04-22T00:19:03;98657.56;;;7.72;43.77
46111;BME280;31849;55.992;37.252;2023-04-22T00:24:07;98658.47;;;7.57;44.20
46111;BME280;31849;55.992;37.252;2023-04-22T00:29:12;98667.13;;;7.47;44.36
46111;BME280;31849;55.992;37.252;2023-04-22T00:34:15;98661.09;;;7.39;43.20
46111;BME280;31849;55.992;37.252;2023-04-22T00:39:20;98646.50;;;7.19;44.14
46111;BME280;31849;55.992;37.252;2023-04-22T00:44:25;98664.59;;;7.24;44.58
46111;BME280;31849;55.992;37.252;2023-04-22T00:49:29;98638.75;;;7.13;44.40
46111;BME280;31849;55.992;37.252;2023-04-22T00:54:34;98646.50;;;7.18;45.18
46111;BME280;31849;55.992;37.252;2023-04-22T00:59:39;98653.41;;;7.22;45.33
46111;BME280;31849;55.992;37.252;2023-04-22T01:04:43;98652.53;;;7.14;45.16
46111;BME280;31849;55.992;37.252;2023-04-22T01:09:47;98652.53;;;7.12;45.21
46111;BME280;31849;55.992;37.252;2023-04-22T01:14:52;98647.38;;;7.08;44.79
46111;BME280;31849;55.992;37.252;2023-04-22T01:19:56;98645.66;;;7.03;44.54
46111;BME280;31849;55.992;37.252;2023-04-22T01:25:01;98645.66;;;7.00;45.89
46111;BME280;31849;55.992;37.252;2023-04-22T01:30:07;98633.63;;;6.95;44.93
46111;BME280;31849;55.992;37.252;2023-04-22T01:35:11;98642.25;;;6.94;45.23
46111;BME280;31849;55.992;37.252;2023-04-22T01:40:18;98595.75;;;6.63;45.26
46111;BME280;31849;55.992;37.252;2023-04-22T01:45:23;98641.38;;;6.79;45.80
46111;BME280;31849;55.992;37.252;2023-04-22T01:50:27;98646.53;;;6.76;45.40
46111;BME280;31849;55.992;37.252;2023-04-22T01:55:32;98643.97;;;6.72;45.73
46111;BME280;31849;55.992;37.252;2023-04-22T02:00:37;98648.25;;;6.62;45.62
46111;BME280;31849;55.992;37.252;2023-04-22T02:05:40;98647.41;;;6.55;46.48
46111;BME280;31849;55.992;37.252;2023-04-22T02:10:45;98645.69;;;6.54;46.34
46111;BME280;31849;55.992;37.252;2023-04-22T02:15:49;98642.25;;;6.50;45.60
46111;BME280;31849;55.992;37.252;2023-04-22T02:20:52;98635.34;;;6.37;46.50
46111;BME280;31849;55.992;37.252;2023-04-22T02:25:57;98643.94;;;6.39;47.29
46111;BME280;31849;55.992;37.252;2023-04-22T02:31:00;98632.75;;;6.32;45.57
46111;BME280;31849;55.992;37.252;2023-04-22T02:36:04;98639.63;;;6.27;46.54
46111;BME280;31849;55.992;37.252;2023-04-22T02:41:09;98649.09;;;6.33;47.17
46111;BME280;31849;55.992;37.252;2023-04-22T02:46:13;98647.38;;;6.35;46.83
46111;BME280;31849;55.992;37.252;2023-04-22T02:51:17;98655.16;;;6.44;47.08
46111;BME280;31849;55.992;37.252;2023-04-22T02:56:22;98652.56;;;6.54;47.50
46111;BME280;31849;55.992;37.252;2023-04-22T03:01:27;98604.31;;;6.25;46.72
46111;BME280;31849;55.992;37.252;2023-04-22T03:06:30;98653.41;;;6.68;47.20
46111;BME280;31849;55.992;37.252;2023-04-22T03:11:35;98659.47;;;6.82;47.02
46111;BME280;31849;55.992;37.252;2023-04-22T03:16:39;98646.53;;;6.93;46.71
46111;BME280;31849;55.992;37.252;2023-04-22T03:21:43;98651.69;;;7.07;46.63
46111;BME280;31849;55.992;37.252;2023-04-22T03:26:47;98655.09;;;7.29;45.65
46111;BME280;31849;55.992;37.252;2023-04-22T03:31:51;98664.56;;;7.44;46.66
46111;BME280;31849;55.992;37.252;2023-04-22T03:36:54;98661.06;;;7.59;45.92
46111;BME280;31849;55.992;37.252;2023-04-22T03:41:59;98673.91;;;7.82;45.86
46111;BME280;31849;55.992;37.252;2023-04-22T03:47:03;98684.19;;;8.02;45.25
46111;BME280;31849;55.992;37.252;2023-04-22T03:52:08;98683.44;;;9.17;43.63
46111;BME280;31849;55.992;37.252;2023-04-22T03:57:13;98681.69;;;16.04;31.87
46111;BME280;31849;55.992;37.252;2023-04-22T04:02:16;98681.03;;;20.73;26.74
46111;BME280;31849;55.992;37.252;2023-04-22T04:07:19;98681.22;;;22.48;23.60
46111;BME280;31849;55.992;37.252;2023-04-22T04:12:24;98678.44;;;24.71;20.97
46111;BME280;31849;55.992;37.252;2023-04-22T04:17:28;98688.28;;;26.45;18.98
46111;BME280;31849;55.992;37.252;2023-04-22T04:22:31;98690.19;;;28.15;17.35
46111;BME280;31849;55.992;37.252;2023-04-22T04:27:37;98690.44;;;29.99;17.48
46111;BME280;31849;55.992;37.252;2023-04-22T04:32:42;98680.78;;;30.90;14.81
46111;BME280;31849;55.992;37.252;2023-04-22T04:37:46;98693.06;;;32.68;15.27
46111;BME280;31849;55.992;37.252;2023-04-22T04:42:53;98674.59;;;33.47;12.85
46111;BME280;31849;55.992;37.252;2023-04-22T04:47:56;98695.84;;;34.31;12.29
46111;BME280;31849;55.992;37.252;2023-04-22T04:53:01;98694.59;;;34.50;11.85
46111;BME280;31849;55.992;37.252;2023-04-22T04:58:06;98695.91;;;34.15;11.95
46111;BME280;31849;55.992;37.252;2023-04-22T05:03:10;98697.94;;;35.53;10.62
46111;BME280;31849;55.992;37.252;2023-04-22T05:08:13;98701.94;;;36.92;9.79
46111;BME280;31849;55.992;37.252;2023-04-22T05:13:18;98709.72;;;37.66;9.76
46111;BME280;31849;55.992;37.252;2023-04-22T05:18:22;98695.28;;;37.38;9.47
46111;BME280;31849;55.992;37.252;2023-04-22T05:23:26;98692.72;;;35.52;10.15
46111;BME280;31849;55.992;37.252;2023-04-22T05:28:32;98707.00;;;37.66;8.91
46111;BME280;31849;55.992;37.252;2023-04-22T05:33:35;98698.91;;;38.43;8.33
46111;BME280;31849;55.992;37.252;2023-04-22T05:38:39;98703.72;;;39.97;7.93
46111;BME280;31849;55.992;37.252;2023-04-22T05:43:44;98695.91;;;37.61;8.45
46111;BME280;31849;55.992;37.252;2023-04-22T05:48:47;98699.03;;;38.70;8.38
46111;BME280;31849;55.992;37.252;2023-04-22T05:53:52;98710.81;;;38.97;8.20
46111;BME280;31849;55.992;37.252;2023-04-22T05:58:57;98708.63;;;37.61;8.90
46111;BME280;31849;55.992;37.252;2023-04-22T06:04:00;98706.69;;;39.35;7.63
46111;BME280;31849;55.992;37.252;2023-04-22T06:09:06;98710.66;;;39.92;7.24
46111;BME280;31849;55.992;37.252;2023-04-22T06:14:11;98701.91;;;39.70;7.73
46111;BME280;31849;55.992;37.252;2023-04-22T06:19:15;98705.13;;;38.30;8.22
46111;BME280;31849;55.992;37.252;2023-04-22T06:24:18;98700.81;;;39.98;7.20
46111;BME280;31849;55.992;37.252;2023-04-22T06:29:23;98713.28;;;41.17;6.85
46111;BME280;31849;55.992;37.252;2023-04-22T06:34:27;98713.91;;;41.76;6.26
46111;BME280;31849;55.992;37.252;2023-04-22T06:39:30;98695.66;;;41.95;6.60
46111;BME280;31849;55.992;37.252;2023-04-22T06:44:35;98700.50;;;42.11;6.48
46111;BME280;31849;55.992;37.252;2023-04-22T06:49:39;98703.53;;;42.03;6.24
46111;BME280;31849;55.992;37.252;2023-04-22T06:54:42;98686.56;;;42.38;6.49
46111;BME280;31849;55.992;37.252;2023-04-22T06:59:47;98700.94;;;42.64;6.20
46111;BME280;31849;55.992;37.252;2023-04-22T07:04:51;98710.94;;;43.43;5.31
46111;BME280;31849;55.992;37.252;2023-04-22T07:09:55;98685.13;;;41.55;6.34
46111;BME280;31849;55.992;37.252;2023-04-22T07:14:59;98683.38;;;37.89;7.89
46111;BME280;31849;55.992;37.252;2023-04-22T07:20:05;98689.94;;;39.31;7.40
46111;BME280;31849;55.992;37.252;2023-04-22T07:25:09;98692.06;;;39.16;8.03
46111;BME280;31849;55.992;37.252;2023-04-22T07:30:14;98663.13;;;33.54;9.85
46111;BME280;31849;55.992;37.252;2023-04-22T07:35:18;98685.22;;;33.57;10.02
46111;BME280;31849;55.992;37.252;2023-04-22T07:40:21;98686.25;;;29.68;11.82
46111;BME280;31849;55.992;37.252;2023-04-22T07:45:27;98685.91;;;28.53;13.09
46111;BME280;31849;55.992;37.252;2023-04-22T07:50:30;98683.53;;;27.58;13.56
46111;BME280;31849;55.992;37.252;2023-04-22T07:55:34;98679.00;;;24.27;15.11
46111;BME280;31849;55.992;37.252;2023-04-22T08:00:38;98684.19;;;27.71;13.58
46111;BME280;31849;55.992;37.252;2023-04-22T08:05:42;98670.16;;;26.05;14.20
46111;BME280;31849;55.992;37.252;2023-04-22T08:10:45;98669.41;;;29.47;12.31
46111;BME280;31849;55.992;37.252;2023-04-22T08:15:50;98671.03;;;27.58;13.32
46111;BME280;31849;55.992;37.252;2023-04-22T08:20:54;98673.69;;;24.88;15.16
46111;BME280;31849;55.992;37.252;2023-04-22T08:25:58;98663.34;;;24.96;15.03
46111;BME280;31849;55.992;37.252;2023-04-22T08:31:03;98671.09;;;23.88;15.19
46111;BME280;31849;55.992;37.252;2023-04-22T08:36:07;98659.72;;;23.07;16.24
46111;BME280;31849;55.992;37.252;2023-04-22T08:41:12;98661.06;;;22.60;17.08
46111;BME280;31849;55.992;37.252;2023-04-22T08:46:18;98662.97;;;21.57;17.54
46111;BME280;31849;55.992;37.252;2023-04-22T08:51:22;98670.44;;;21.20;17.81
46111;BME280;31849;55.992;37.252;2023-04-22T08:56:26;98668.34;;;20.80;17.99
46111;BME280;31849;55.992;37.252;2023-04-22T09:01:33;98670.81;;;20.35;18.73
46111;BME280;31849;55.992;37.252;2023-04-22T09:06:37;98667.72;;;19.60;19.66
46111;BME280;31849;55.992;37.252;2023-04-22T09:11:41;98663.28;;;19.10;20.42
46111;BME280;31849;55.992;37.252;2023-04-22T09:16:47;98661.19;;;19.17;20.51
46111;BME280;31849;55.992;37.252;2023-04-22T09:21:51;98655.31;;;19.80;19.94
46111;BME280;31849;55.992;37.252;2023-04-22T09:26:55;98656.56;;;20.38;18.93
46111;BME280;31849;55.992;37.252;2023-04-22T09:32:08;98653.03;;;20.71;19.20
46111;BME280;31849;55.992;37.252;2023-04-22T09:37:12;98649.59;;;20.69;18.96
46111;BME280;31849;55.992;37.252;2023-04-22T09:42:16;98652.22;;;20.53;19.28
46111;BME280;31849;55.992;37.252;2023-04-22T09:47:21;98647.41;;;19.80;19.13
46111;BME280;31849;55.992;37.252;2023-04-22T09:52:25;98642.75;;;19.67;19.45
46111;BME280;31849;55.992;37.252;2023-04-22T09:57:29;98649.69;;;19.86;19.60
46111;BME280;31849;55.992;37.252;2023-04-22T10:02:34;98641.91;;;20.00;20.20
46111;BME280;31849;55.992;37.252;2023-04-22T10:07:38;98662.84;;;19.70;20.23
46111;BME280;31849;55.992;37.252;2023-04-22T10:12:42;98652.97;;;19.05;20.83
46111;BME280;31849;55.992;37.252;2023-04-22T10:17:49;98656.13;;;19.29;20.76
46111;BME280;31849;55.992;37.252;2023-04-22T10:22:55;98628.94;;;19.80;21.52
46111;BME280;31849;55.992;37.252;2023-04-22T10:28:01;98641.84;;;20.18;21.35
46111;BME280;31849;55.992;37.252;2023-04-22T10:33:36;98642.16;;;19.96;20.93
46111;BME280;31849;55.992;37.252;2023-04-22T10:39:13;98647.47;;;19.27;21.01
46111;BME280;31849;55.992;37.252;2023-04-22T10:44:06;98645.53;;;18.77;21.26
46111;BME280;31849;55.992;37.252;2023-04-22T10:49:12;98654.06;;;18.65;21.48
46111;BME280;31849;55.992;37.252;2023-04-22T10:59:56;98637.44;;;19.34;20.48
46111;BME280;31849;55.992;37.252;2023-04-22T11:05:20;98639.25;;;19.16;20.78
46111;BME280;31849;55.992;37.252;2023-04-22T11:10:32;98632.31;;;18.42;21.50
46111;BME280;31849;55.992;37.252;2023-04-22T11:15:38;98643.41;;;18.10;21.69
46111;BME280;31849;55.992;37.252;2023-04-22T11:20:44;98634.44;;;18.53;21.56
46111;BME280;31849;55.992;37.252;2023-04-22T11:25:53;98623.50;;;19.32;21.04
46111;BME280;31849;55.992;37.252;2023-04-22T11:31:02;98621.56;;;19.69;20.60
46111;BME280;31849;55.992;37.252;2023-04-22T11:36:10;98626.84;;;19.87;20.42
46111;BME280;31849;55.992;37.252;2023-04-22T11:41:19;98623.28;;;19.19;21.32
46111;BME280;31849;55.992;37.252;2023-04-22T11:46:28;98621.22;;;18.35;22.06
46111;BME280;31849;55.992;37.252;2023-04-22T11:51:33;98628.63;;;18.08;22.15
46111;BME280;31849;55.992;37.252;2023-04-22T11:56:37;98622.63;;;17.85;21.98
46111;BME280;31849;55.992;37.252;2023-04-22T12:01:41;98620.41;;;17.97;22.22
46111;BME280;31849;55.992;37.252;2023-04-22T12:06:47;98611.56;;;17.98;22.17
46111;BME280;31849;55.992;37.252;2023-04-22T12:11:51;98615.50;;;18.44;22.18
46111;BME280;31849;55.992;37.252;2023-04-22T12:16:54;98604.41;;;18.38;21.74
46111;BME280;31849;55.992;37.252;2023-04-22T12:22:00;98606.06;;;18.40;21.61
46111;BME280;31849;55.992;37.252;2023-04-22T12:27:03;98599.59;;;18.28;21.51
46111;BME280;31849;55.992;37.252;2023-04-22T12:32:08;98605.63;;;18.67;21.59
46111;BME280;31849;55.992;37.252;2023-04-22T12:37:14;98604.19;;;18.79;21.38
46111;BME280;31849;55.992;37.252;2023-04-22T12:42:18;98597.28;;;18.76;21.06
46111;BME280;31849;55.992;37.252;2023-04-22T12:47:22;98590.81;;;19.01;21.41
46111;BME280;31849;55.992;37.252;2023-04-22T12:52:27;98593.59;;;19.33;21.00
46111;BME280;31849;55.992;37.252;2023-04-22T12:57:31;98598.88;;;19.15;21.22
46111;BME280;31849;55.992;37.252;2023-04-22T13:02:34;98584.47;;;18.88;21.19
46111;BME280;31849;55.992;37.252;2023-04-22T13:07:40;98598.19;;;18.58;21.42
46111;BME280;31849;55.992;37.252;2023-04-22T13:12:45;98599.00;;;18.04;21.49
46111;BME280;31849;55.992;37.252;2023-04-22T13:17:48;98599.50;;;18.13;22.02
46111;BME280;31849;55.992;37.252;2023-04-22T13:22:54;98598.69;;;18.10;21.82
46111;BME280;31849;55.992;37.252;2023-04-22T13:27:57;98604.75;;;17.93;22.01
46111;BME280;31849;55.992;37.252;2023-04-22T13:33:01;98606.53;;;17.93;22.16
46111;BME280;31849;55.992;37.252;2023-04-22T13:38:06;98602.66;;;17.81;22.05
46111;BME280;31849;55.992;37.252;2023-04-22T13:43:10;98601.53;;;17.47;22.59
46111;BME280;31849;55.992;37.252;2023-04-22T13:48:14;98605.91;;;17.07;23.09
46111;BME280;31849;55.992;37.252;2023-04-22T13:53:19;98615.28;;;16.92;23.41
46111;BME280;31849;55.992;37.252;2023-04-22T13:58:22;98604.91;;;16.89;23.34
46111;BME280;31849;55.992;37.252;2023-04-22T14:03:26;98601.38;;;16.90;23.21
46111;BME280;31849;55.992;37.252;2023-04-22T14:08:33;98604.06;;;16.88;23.37
46111;BME280;31849;55.992;37.252;2023-04-22T14:13:38;98597.78;;;16.93;23.41
46111;BME280;31849;55.992;37.252;2023-04-22T14:18:41;98603.22;;;16.88;23.15
46111;BME280;31849;55.992;37.252;2023-04-22T14:23:48;98606.69;;;16.66;23.58
46111;BME280;31849;55.992;37.252;2023-04-22T14:28:51;98608.59;;;16.63;23.92
46111;BME280;31849;55.992;37.252;2023-04-22T14:33:55;98615.56;;;16.84;23.63
46111;BME280;31849;55.992;37.252;2023-04-22T14:39:00;98609.00;;;16.96;23.68
46111;BME280;31849;55.992;37.252;2023-04-22T14:44:04;98618.06;;;17.10;23.65
46111;BME280;31849;55.992;37.252;2023-04-22T14:49:07;98617.06;;;17.12;23.98
46111;BME280;31849;55.992;37.252;2023-04-22T14:54:12;98612.88;;;17.29;23.55
46111;BME280;31849;55.992;37.252;2023-04-22T14:59:16;98618.44;;;17.42;23.80
46111;BME280;31849;55.992;37.252;2023-04-22T15:04:19;98630.97;;;17.55;23.35
46111;BME280;31849;55.992;37.252;2023-04-22T15:09:24;98627.22;;;17.61;23.61
46111;BME280;31849;55.992;37.252;2023-04-22T15:14:28;98629.19;;;17.56;23.61
46111;BME280;31849;55.992;37.252;2023-04-22T15:19:32;98637.06;;;17.37;23.80
46111;BME280;31849;55.992;37.252;2023-04-22T15:24:38;98641.22;;;17.20;23.85
46111;BME280;31849;55.992;37.252;2023-04-22T15:29:42;98642.34;;;16.94;24.35
46111;BME280;31849;55.992;37.252;2023-04-22T15:34:47;98645.34;;;16.63;24.28
46111;BME280;31849;55.992;37.252;2023-04-22T15:39:52;98642.94;;;16.57;24.55
46111;BME280;31849;55.992;37.252;2023-04-22T15:44:55;98638.25;;;16.43;24.81
46111;BME280;31849;55.992;37.252;2023-04-22T15:49:59;98641.78;;;16.42;24.85
46111;BME280;31849;55.992;37.252;2023-04-22T15:55:09;98636.91;;;16.32;25.18
46111;BME280;31849;55.992;37.252;2023-04-22T16:00:13;98636.47;;;16.21;26.02
46111;BME280;31849;55.992;37.252;2023-04-22T16:05:18;98640.88;;;15.97;26.65
46111;BME280;31849;55.992;37.252;2023-04-22T16:10:25;98635.13;;;15.87;27.01
46111;BME280;31849;55.992;37.252;2023-04-22T16:15:28;98637.66;;;15.65;26.84
46111;BME280;31849;55.992;37.252;2023-04-22T16:20:32;98636.13;;;15.34;27.01
46111;BME280;31849;55.992;37.252;2023-04-22T16:25:37;98638.69;;;15.10;27.30
46111;BME280;31849;55.992;37.252;2023-04-22T16:30:41;98638.22;;;14.98;27.97
46111;BME280;31849;55.992;37.252;2023-04-22T16:35:44;98636.34;;;14.76;28.38
46111;BME280;31849;55.992;37.252;2023-04-22T16:40:49;98642.03;;;14.60;28.56
46111;BME280;31849;55.992;37.252;2023-04-22T16:45:55;98647.94;;;14.39;29.26
46111;BME280;31849;55.992;37.252;2023-04-22T16:50:58;98650.31;;;14.18;30.31
46111;BME280;31849;55.992;37.252;2023-04-22T16:56:04;98658.88;;;13.94;30.77
46111;BME280;31849;55.992;37.252;2023-04-22T17:01:07;98670.78;;;13.72;32.00
46111;BME280;31849;55.992;37.252;2023-04-22T17:06:11;98671.44;;;13.48;32.16
46111;BME280;31849;55.992;37.252;2023-04-22T17:11:16;98663.47;;;13.19;32.82
46111;BME280;31849;55.992;37.252;2023-04-22T17:16:19;98672.47;;;13.08;33.29
46111;BME280;31849;55.992;37.252;2023-04-22T17:21:23;98676.38;;;12.90;33.62
46111;BME280;31849;55.992;37.252;2023-04-22T17:26:29;98680.25;;;12.73;34.12
46111;BME280;31849;55.992;37.252;2023-04-22T17:31:32;98692.88;;;12.54;34.23
46111;BME280;31849;55.992;37.252;2023-04-22T17:36:36;98692.34;;;12.40;34.01
46111;BME280;31849;55.992;37.252;2023-04-22T17:41:41;98696.22;;;12.20;34.67
46111;BME280;31849;55.992;37.252;2023-04-22T17:46:45;98701.66;;;12.09;35.16
46111;BME280;31849;55.992;37.252;2023-04-22T17:51:48;98710.56;;;11.99;35.59
46111;BME280;31849;55.992;37.252;2023-04-22T17:56:53;98674.66;;;11.68;35.58
46111;BME280;31849;55.992;37.252;2023-04-22T18:01:57;98715.38;;;11.72;36.27
46111;BME280;31849;55.992;37.252;2023-04-22T18:07:02;98718.38;;;11.52;36.94
46111;BME280;31849;55.992;37.252;2023-04-22T18:12:07;98717.00;;;11.33;37.29
46111;BME280;31849;55.992;37.252;2023-04-22T18:17:11;98719.78;;;11.20;37.37
46111;BME280;31849;55.992;37.252;2023-04-22T18:22:15;98713.16;;;11.01;37.74
46111;BME280;31849;55.992;37.252;2023-04-22T18:27:21;98717.66;;;10.93;38.25
46111;BME280;31849;55.992;37.252;2023-04-22T18:32:24;98729.94;;;10.83;38.62
46111;BME280;31849;55.992;37.252;2023-04-22T18:37:28;98731.88;;;10.68;38.60
46111;BME280;31849;55.992;37.252;2023-04-22T18:42:33;98738.94;;;10.60;39.31
46111;BME280;31849;55.992;37.252;2023-04-22T18:47:36;98735.66;;;10.46;39.69
46111;BME280;31849;55.992;37.252;2023-04-22T18:52:41;98740.06;;;10.39;39.46
46111;BME280;31849;55.992;37.252;2023-04-22T18:57:46;98741.91;;;10.29;39.90
46111;BME280;31849;55.992;37.252;2023-04-22T19:02:49;98736.84;;;10.20;38.29
46111;BME280;31849;55.992;37.252;2023-04-22T19:07:53;98741.34;;;10.06;39.86
46111;BME280;31849;55.992;37.252;2023-04-22T19:12:58;98740.56;;;9.96;40.56
46111;BME280;31849;55.992;37.252;2023-04-22T19:18:02;98750.16;;;9.91;38.86
46111;BME280;31849;55.992;37.252;2023-04-22T19:23:06;98751.16;;;9.79;40.10
46111;BME280;31849;55.992;37.252;2023-04-22T19:28:11;98740.03;;;9.64;40.64
46111;BME280;31849;55.992;37.252;2023-04-22T19:33:14;98753.00;;;9.66;39.65
46111;BME280;31849;55.992;37.252;2023-04-22T19:38:17;98757.50;;;9.47;41.78
46111;BME280;31849;55.992;37.252;2023-04-22T19:43:24;98758.47;;;9.35;41.77
46111;BME280;31849;55.992;37.252;2023-04-22T19:48:28;98763.78;;;9.21;42.47
46111;BME280;31849;55.992;37.252;2023-04-22T19:53:32;98769.03;;;9.13;42.64
46111;BME280;31849;55.992;37.252;2023-04-22T19:58:38;98770.00;;;9.03;43.08
46111;BME280;31849;55.992;37.252;2023-04-22T20:03:43;98766.53;;;8.98;42.67
46111;BME280;31849;55.992;37.252;2023-04-22T20:08:50;98755.38;;;8.93;42.63
46111;BME280;31849;55.992;37.252;2023-04-22T20:13:56;98771.78;;;8.90;43.20
46111;BME280;31849;55.992;37.252;2023-04-22T20:19:01;98771.03;;;8.76;43.47
46111;BME280;31849;55.992;37.252;2023-04-22T20:24:05;98765.00;;;8.72;43.28
46111;BME280;31849;55.992;37.252;2023-04-22T20:29:11;98775.38;;;8.71;44.50
46111;BME280;31849;55.992;37.252;2023-04-22T20:34:15;98769.41;;;8.58;44.51
46111;BME280;31849;55.992;37.252;2023-04-22T20:39:20;98772.91;;;8.51;44.29
46111;BME280;31849;55.992;37.252;2023-04-22T20:44:25;98775.47;;;8.43;44.19
46111;BME280;31849;55.992;37.252;2023-04-22T20:49:29;98782.44;;;8.38;44.00
46111;BME280;31849;55.992;37.252;2023-04-22T20:54:33;98785.06;;;8.32;44.77
46111;BME280;31849;55.992;37.252;2023-04-22T20:59:38;98793.69;;;8.27;44.66
46111;BME280;31849;55.992;37.252;2023-04-22T21:04:41;98793.72;;;8.20;42.83
46111;BME280;31849;55.992;37.252;2023-04-22T21:09:45;98780.81;;;8.01;44.73
46111;BME280;31849;55.992;37.252;2023-04-22T21:14:51;98794.66;;;7.92;45.07
46111;BME280;31849;55.992;37.252;2023-04-22T21:19:55;98796.41;;;7.84;45.23
46111;BME280;31849;55.992;37.252;2023-04-22T21:25:01;98791.25;;;7.77;46.16
46111;BME280;31849;55.992;37.252;2023-04-22T21:30:08;98803.31;;;7.71;45.78
46111;BME280;31849;55.992;37.252;2023-04-22T21:35:12;98799.91;;;7.60;45.40
46111;BME280;31849;55.992;37.252;2023-04-22T21:40:16;98804.22;;;7.53;45.52
46111;BME280;31849;55.992;37.252;2023-04-22T21:45:21;98805.97;;;7.50;45.74
46111;BME280;31849;55.992;37.252;2023-04-22T21:50:25;98805.06;;;7.46;44.84
46111;BME280;31849;55.992;37.252;2023-04-22T21:55:30;98805.09;;;7.34;44.27
46111;BME280;31849;55.992;37.252;2023-04-22T22:00:35;98808.53;;;7.20;47.15
46111;BME280;31849;55.992;37.252;2023-04-22T22:05:39;98811.13;;;7.17;47.17
46111;BME280;31849;55.992;37.252;2023-04-22T22:10:43;98824.91;;;7.16;47.72
46111;BME280;31849;55.992;37.252;2023-04-22T22:15:48;98819.72;;;7.12;47.40
46111;BME280;31849;55.992;37.252;2023-04-22T22:20:54;98829.19;;;7.03;47.55
46111;BME280;31849;55.992;37.252;2023-04-22T22:25:58;98828.31;;;7.00;47.50
46111;BME280;31849;55.992;37.252;2023-04-22T22:31:02;98832.63;;;6.96;47.68
46111;BME280;31849;55.992;37.252;2023-04-22T22:36:06;98834.34;;;6.91;46.14
46111;BME280;31849;55.992;37.252;2023-04-22T22:41:10;98835.16;;;6.82;47.83
46111;BME280;31849;55.992;37.252;2023-04-22T22:46:14;98829.13;;;6.76;48.97
46111;BME280;31849;55.992;37.252;2023-04-22T22:51:18;98837.72;;;6.67;47.97
46111;BME280;31849;55.992;37.252;2023-04-22T22:56:22;98839.41;;;6.62;48.71
46111;BME280;31849;55.992;37.252;2023-04-22T23:01:27;98842.88;;;6.59;48.71
46111;BME280;31849;55.992;37.252;2023-04-22T23:06:30;98836.81;;;6.54;49.07
46111;BME280;31849;55.992;37.252;2023-04-22T23:11:34;98838.53;;;6.54;48.83
46111;BME280;31849;55.992;37.252;2023-04-22T23:16:39;98838.50;;;6.46;49.11
46111;BME280;31849;55.992;37.252;2023-04-22T23:21:42;98840.19;;;6.44;47.91
46111;BME280;31849;55.992;37.252;2023-04-22T23:26:48;98847.94;;;6.36;48.79
46111;BME280;31849;55.992;37.252;2023-04-22T23:31:53;98853.94;;;6.37;49.68
46111;BME280;31849;55.992;37.252;2023-04-22T23:36:57;98840.13;;;6.24;50.54
46111;BME280;31849;55.992;37.252;2023-04-22T23:42:01;98859.91;;;6.25;50.52
46111;BME280;31849;55.992;37.252;2023-04-22T23:47:06;98855.59;;;6.19;50.93
46111;BME280;31849;55.992;37.252;2023-04-22T23:52:09;98858.19;;;6.21;49.99
46111;BME280;31849;55.992;37.252;2023-04-22T23:57:14;98862.50;;;6.25;50.17
